Overview Statistics Trail Chart Weather Telemetry Raw packets
 

This is the latest recevied weather packets stored in our database for station/object KD2FKI. If no packets are shown the sender has not sent any weather packets the latest 10 day(s).

<< 22 23 24 25 26 27 28 >>
Time Temp. Humidity Pressure Rain* Wind** Luminosity Snow
1777860038 9.44° C 56% - 0 mm - - -
1777859445 10° C 53% - 0 mm - - -
1777858837 10.56° C 52% - 0 mm - - -
1777858243 11.11° C 50% - 0 mm - - -
1777857634 11.67° C 47% - 0 mm - - -
1777857041 12.78° C 43% - 0 mm - - -
1777856432 13.33° C 41% - 0 mm - - -
1777855838 13.89° C 39% - 0 mm - - -
1777855246 14.44° C 37% - 0 mm - - -
1777854636 15° C 37% - 0 mm - - -
1777854043 15° C 37% - 0 mm - - -
1777853435 15° C 36% - 0 mm - - -
1777852841 15.56° C 35% - 0 mm - - -
1777852231 16.11° C 34% - 0 mm - - -
1777851657 16.67° C 33% - 0 mm - - -
1777851046 17.22° C 32% - 0 mm - - -
1777850436 18.33° C 30% - 0 mm - - -
1777849844 18.89° C 30% - 0 mm - - -
1777849252 18.89° C 29% - 0 mm - - -
1777848642 20° C 29% - 0 mm - - -
1777848032 19.44° C 29% - 0 mm - - -
1777847439 19.44° C 29% - 0 mm - - -
1777846829 19.44° C 30% - 0 mm - - -
1777846238 20° C 29% - 0 mm - - -
1777845645 20° C 28% - 0 mm - - -

* Rain latest hour (hover to see other rain measurements)
** Current wind speed in m/s (hover to see current wind gust speed)